Sagle, ID (83860)

1:01 AM PST on December 29, 2014 (GMT -0800)
Sagle near Round Lake | Change Station
CLOSE
Current Station
Personal Weather Station
Location: Sagle, ID
Elevation: 2150 ft
Nearby Weather Stations
Active Advisory: Wind Advisory Active Notice: Local Storm Report

Elev 2150 ft 48.18 °N, 116.65 °W | Updated 1 minute ago

Overcast
Overcast
23.4 °F
Feels Like 14 °F
N
8.0
Wind Variable Wind from East
Gusts 11.0 mph

Today
High -- | Low -- °F
--% Chance of Precip.
Yesterday
High -- | Low -- °F
Precip. -- in
7:36 AM 4:00 PM
First Quarter, 57% visible
Pressure 30.30 in
Visibility 7.0 miles
Clouds Scattered Clouds 6000 ft
Mostly Cloudy 8000 ft
Overcast 12000 ft
Windchill 14 °F
Dew Point 15 °F
Humidity 69%
Rainfall 0.00 in
Snow Depth Not available.
UV 0 out of 12
Pollen .10 out of 12
Air Quality Not available.
Flu Activity Not available.
METAR KSZT 290855Z AUTO 02021G29KT 7SM SCT060 BKN080 OVC120 M05/M10 A3030 RMK AO2

More Conditions Fewer Conditions

Pressure 30.30 in
Visibility 7.0 miles
Clouds Scattered Clouds 6000 ft
Mostly Cloudy 8000 ft
Overcast 12000 ft
Windchill 14 °F
Dew Point 15 °F
Humidity 69%
Rainfall 0.00 in
Snow Depth Not available.
UV 0 out of 12
Pollen .10 out of 12
Air Quality Not available.
Flu Activity Not available.
METAR KSZT 290855Z AUTO 02021G29KT 7SM SCT060 BKN080 OVC120 M05/M10 A3030 RMK AO2

More Conditions Fewer Conditions

10-Day Weather Forecast

Almanac

Astronomy

Dec. 29, 2014 Rise Set
Actual Time
Civil Twilight
Nautical Twilight
Astronomical Twilight
Moon
Length of Visible Light
Length of Day
Tomorrow will be .
, % of the Moon is Illuminated

Today's Extremes

State Highs State Lows

Community

WunderPhotos

Upload Photos

1,781,559 photos uploaded!

WunderBlogs® & News

Nearby

Air Quality

  Air Quality AQ Index Pollutant
Not available.

Snow Depth

Station Depth Elevation

Earthquake Activity

City Distance Mag. Time & Date
Minimum magnitude displayed is 2.5.

Coastal Water Temperatures

Place Temperature

Nearby Weather Stations